Latest Weather Observations for Albury

IDN60801

Issued at 10:05 pm EST Thursday 17 April 2014 (issued every 30 minutes, with the page automatically refreshed every 10 minutes)

About weather observations | Map of weather stations | Latest weather observations for NSW | Other Formats
Station Details ID: 072160 Name: ALBURY AIRPORT AWS Lat: -36.07 Lon: 146.95 Height: 163.5 m
Data from the previous 72 hours. | See also: Recent months at Albury
Date/Time
EST
Temp
°C
App
Temp
°C
Dew
Point
Rel
Hum
%
Delta-T
°C
Wind Press
QNH
hPa
Press
MSL
hPa
Rain
since 9 am
mm
Dir
 
Spd
km/h
Gust
km/h
Spd
kts
Gust
kts
17/10:00pm 12.2 12.1 9.6 84 1.3 E 0 0 0 0 1020.1 - 0.0
17/09:30pm 12.3 12.3 9.7 84 1.3 E 0 0 0 0 1020.1 - 0.0
17/09:00pm 12.8 12.9 10.0 83 1.4 CALM 0 0 0 0 1020.0 1019.9 0.0
17/08:30pm 13.7 13.8 10.1 79 1.9 CALM 0 0 0 0 1019.9 - 0.0
17/08:00pm 14.8 14.9 10.0 73 2.5 CALM 0 0 0 0 1019.9 - 0.0
17/07:30pm 15.4 14.4 10.4 72 2.7 NW 6 7 3 4 1019.7 - 0.0
17/07:00pm 15.9 14.9 10.2 69 3.0 NNW 6 7 3 4 1019.6 - 0.0
17/06:30pm 17.1 16.0 10.5 65 3.5 NNW 7 9 4 5 1019.3 - 0.0
17/06:00pm 17.6 15.9 9.8 60 4.1 NW 9 13 5 7 1019.2 1019.1 0.0
17/05:30pm 19.1 17.5 10.1 56 4.9 NW 9 11 5 6 1019.0 - 0.0
17/05:00pm 20.2 17.9 10.3 53 5.4 WNW 13 17 7 9 1018.9 - 0.0
17/04:30pm 21.3 20.0 11.3 53 5.6 NW 9 15 5 8 1018.9 - 0.0
17/04:00pm 21.8 19.8 10.0 47 6.4 WNW 11 24 6 13 1019.0 - 0.0
17/03:30pm 21.7 19.3 9.9 47 6.4 WNW 13 17 7 9 1019.1 - 0.0
17/03:00pm 21.9 20.3 10.1 47 6.4 W 9 19 5 10 1019.4 1019.3 0.0
17/02:30pm 21.0 19.8 10.2 50 5.9 SE 7 13 4 7 1019.5 - 0.0
17/02:00pm 21.2 20.0 10.4 50 5.9 SE 7 13 4 7 1019.7 - 0.0
17/01:30pm 21.0 19.9 9.9 49 6.0 S 6 9 3 5 1019.9 - 0.0
17/01:00pm 20.9 20.1 9.5 48 6.1 SSE 4 15 2 8 1020.2 - 0.0
17/12:30pm 20.3 19.5 11.2 56 5.0 SE 6 13 3 7 1020.5 - 0.0
17/12:00pm 19.0 17.8 10.3 57 4.7 SE 7 11 4 6 1020.9 1020.8 0.0
17/11:30am 18.7 18.7 11.0 61 4.2 WSW 2 7 1 4 1021.4 - 0.0
17/11:00am 18.1 17.8 12.8 71 3.0 NW 6 7 3 4 1021.6 - 0.0
17/10:30am 16.5 16.1 11.2 71 2.9 N 4 9 2 5 1021.7 - 0.0
17/10:00am 15.0 14.1 10.6 75 2.3 SSE 6 9 3 5 1021.8 - 0.0
17/09:30am 15.1 14.1 10.3 73 2.5 ENE 6 9 3 5 1021.9 - 0.0
17/09:00am 13.9 13.1 9.5 75 2.3 ENE 4 7 2 4 1022.1 1022.0 0.0
17/08:30am 13.3 12.8 9.4 77 2.0 E 2 7 1 4 1022.0 - 0.0
17/08:00am 10.5 10.3 8.9 90 0.8 CALM 0 0 0 0 1021.9 - 0.0
17/07:30am 9.4 9.1 8.6 95 0.4 CALM 0 0 0 0 1021.5 - 0.0
17/07:01am 8.0 7.0 7.4 96 0.3 W 2 6 1 3 1021.2 - 0.0
17/07:00am 8.0 7.0 7.4 96 0.3 W 2 6 1 3 1021.2 - 0.0
17/06:44am 7.3 5.3 6.4 94 0.4 N 6 7 3 4 1020.9 - 0.0
17/06:30am 7.9 6.1 7.0 94 0.4 N 6 9 3 5 1020.7 - 0.0
17/06:00am 8.7 7.1 7.8 94 0.4 NW 6 7 3 4 1020.6 1020.5 0.0
17/05:30am 8.6 7.6 7.5 93 0.5 N 2 6 1 3 1020.2 - 0.0
17/05:00am 9.3 9.0 8.5 95 0.4 CALM 0 0 0 0 1020.0 - 0.0
17/04:30am 8.3 6.9 7.4 94 0.4 NNW 4 9 2 5 1019.7 - 0.0
17/04:00am 9.1 8.7 8.2 94 0.4 CALM 0 0 0 0 1019.4 - 0.0
17/03:30am 9.2 8.8 8.4 95 0.4 CALM 0 0 0 0 1019.3 - 0.0
17/03:00am 9.2 7.5 8.3 94 0.4 NNW 7 9 4 5 1019.2 1019.1 0.0
17/02:30am 9.0 8.5 7.8 92 0.6 CALM 0 0 0 0 1019.2 - 0.0
17/02:00am 9.7 9.4 8.5 92 0.6 CALM 0 0 0 0 1019.5 - 0.0
17/01:30am 9.4 8.9 7.7 89 0.8 CALM 0 0 0 0 1019.8 - 0.0
17/01:00am 10.6 10.3 8.7 88 0.9 CALM 0 0 0 0 1019.8 - 0.0
17/12:30am 11.3 11.1 9.2 87 1.1 CALM 0 0 0 0 1019.9 - 0.0
17/12:00am 11.4 11.2 9.0 85 1.2 NW 0 0 0 0 1020.0 1019.9 0.0
 
Date/Time
EST
Temp
°C
App
Temp
°C
Dew
Point
Rel
Hum
%
Delta-T
°C
Wind Press
QNH
hPa
Press
MSL
hPa
Rain
since 9 am
mm
Dir
 
Spd
km/h
Gust
km/h
Spd
kts
Gust
kts
16/11:30pm 11.6 11.4 9.2 85 1.2 CALM 0 0 0 0 1020.2 - 0.0
16/11:00pm 12.3 11.5 9.7 84 1.3 S 4 7 2 4 1020.3 - 0.0
16/10:30pm 12.6 12.5 9.6 82 1.5 CALM 0 7 0 4 1020.4 - 0.0
16/10:00pm 13.5 13.5 9.9 79 1.9 CALM 0 0 0 0 1020.4 - 0.0
16/09:32pm 13.4 13.6 10.4 82 1.6 CALM 0 0 0 0 1020.5 - 0.0
16/09:30pm 13.5 13.6 10.3 81 1.7 CALM 0 0 0 0 1020.5 - 0.0
16/09:12pm 13.6 13.8 10.4 81 1.7 CALM 0 0 0 0 1020.4 - 0.0
16/09:00pm 13.7 13.9 10.7 82 1.6 CALM 0 0 0 0 1020.3 1020.2 0.0
16/08:30pm 13.8 14.0 10.4 80 1.8 CALM 0 6 0 3 1020.0 - 0.0
16/08:00pm 14.4 13.5 10.6 78 2.0 SE 6 7 3 4 1019.8 - 0.0
16/07:30pm 15.5 15.6 10.3 71 2.8 CALM 0 0 0 0 1019.6 - 0.0
16/07:00pm 15.8 15.9 10.1 69 3.0 CALM 0 6 0 3 1019.6 - 0.0
16/06:30pm 16.7 15.6 9.9 64 3.6 NNW 6 6 3 3 1019.3 - 0.0
16/06:00pm 17.3 15.6 9.7 61 4.0 WNW 9 11 5 6 1019.1 1019.0 0.0
16/05:30pm 17.5 15.6 9.2 58 4.4 W 9 13 5 7 1018.9 - 0.0
16/05:00pm 19.3 16.9 8.6 50 5.6 WNW 11 15 6 8 1018.8 - 0.0
16/04:30pm 21.1 19.2 9.0 46 6.5 W 9 15 5 8 1018.6 - 0.0
16/04:00pm 21.2 18.3 8.1 43 6.9 WNW 13 20 7 11 1018.6 - 0.0
16/03:30pm 21.2 18.3 8.1 43 6.9 W 13 19 7 10 1018.8 - 0.0
16/03:00pm 21.2 18.6 9.4 47 6.3 W 13 20 7 11 1018.9 1018.8 0.0
16/02:30pm 21.3 18.7 9.5 47 6.4 WSW 13 22 7 12 1019.1 - 0.0
16/02:00pm 20.0 17.7 10.4 54 5.2 W 13 19 7 10 1019.2 - 0.0
16/01:30pm 19.2 16.4 9.9 55 5.0 W 15 20 8 11 1019.5 - 0.0
16/01:00pm 20.2 18.5 11.1 56 5.0 WNW 11 20 6 11 1019.9 - 0.0
16/12:30pm 19.0 17.4 10.3 57 4.7 S 9 19 5 10 1020.2 - 0.0
16/12:00pm 19.2 18.1 10.5 57 4.7 SSE 7 13 4 7 1020.6 1020.5 0.0
16/11:30am 18.9 18.0 10.5 58 4.6 ESE 6 13 3 7 1020.9 - 0.0
16/11:00am 18.6 17.6 10.2 58 4.5 SE 6 11 3 6 1021.3 - 0.0
16/10:30am 16.9 15.6 9.8 63 3.8 SSE 7 9 4 5 1021.4 - 0.0
16/10:00am 16.5 15.4 10.1 66 3.4 SSE 6 9 3 5 1021.6 - 0.0
16/09:30am 16.0 14.9 10.1 68 3.1 ESE 6 9 3 5 1021.8 - 0.0
16/09:00am 14.2 13.3 9.4 73 2.5 S 4 6 2 3 1021.9 1021.8 0.0
16/08:30am 13.7 13.4 8.7 72 2.5 CALM 0 0 0 0 1021.8 - 0.0
16/08:00am 11.9 11.4 8.0 77 1.9 CALM 0 0 0 0 1021.7 - 0.0
16/07:30am 10.9 10.7 9.2 89 0.9 CALM 0 6 0 3 1021.6 - 0.0
16/07:00am 10.0 9.8 8.9 93 0.5 CALM 0 0 0 0 1021.4 - 0.0
16/06:30am 8.8 8.3 7.7 93 0.5 CALM 0 0 0 0 1021.0 - 0.0
16/06:00am 9.2 8.7 8.0 92 0.6 CALM 0 0 0 0 1020.8 1020.7 0.0
16/05:30am 9.7 9.4 8.5 92 0.6 CALM 0 0 0 0 1020.6 - 0.0
16/05:00am 10.0 9.6 8.4 90 0.8 CALM 0 0 0 0 1020.3 - 0.0
16/04:30am 10.6 10.4 9.0 90 0.8 CALM 0 0 0 0 1020.3 - 0.0
16/04:00am 10.5 10.1 8.3 86 1.1 CALM 0 0 0 0 1020.1 - 0.0
16/03:30am 11.2 11.1 9.6 90 0.8 CALM 0 0 0 0 1020.0 - 0.0
16/03:09am 10.7 10.5 9.0 89 0.9 CALM 0 0 0 0 1020.1 - 0.0
16/03:00am 10.5 10.2 8.6 88 0.9 CALM 0 0 0 0 1020.2 1020.1 0.0
16/02:55am 10.6 10.3 8.7 88 0.9 CALM 0 0 0 0 1020.2 - 0.0
16/02:30am 11.0 10.8 8.9 87 1.0 CALM 0 6 0 3 1020.2 - 0.0
16/02:00am 10.4 10.0 8.2 86 1.1 CALM 0 0 0 0 1020.4 - 0.0
16/01:30am 10.7 9.6 8.3 85 1.2 WNW 4 7 2 4 1020.6 - 0.0
16/01:00am 11.4 11.2 9.0 85 1.2 CALM 0 2 0 1 1020.8 - 0.0
16/12:30am 11.9 10.4 9.3 84 1.3 NNW 7 7 4 4 1020.8 - 0.0
16/12:00am 11.8 11.5 8.8 82 1.5 CALM 0 4 0 2 1020.9 1020.8 0.0
 
Date/Time
EST
Temp
°C
App
Temp
°C
Dew
Point
Rel
Hum
%
Delta-T
°C
Wind Press
QNH
hPa
Press
MSL
hPa
Rain
since 9 am
mm
Dir
 
Spd
km/h
Gust
km/h
Spd
kts
Gust
kts
15/11:30pm 12.5 11.6 9.3 81 1.6 E 4 7 2 4 1020.9 - 0.0
15/11:00pm 12.7 11.5 9.7 82 1.5 NNW 6 7 3 4 1021.1 - 0.0
15/10:30pm 12.4 11.5 9.4 82 1.5 WNW 4 7 2 4 1021.2 - 0.0
15/10:00pm 12.4 11.9 9.4 82 1.5 ESE 2 7 1 4 1021.2 - 0.0
15/09:30pm 12.8 12.7 9.6 81 1.6 CALM 0 0 0 0 1021.1 - 0.0
15/09:00pm 13.4 13.4 9.8 79 1.9 CALM 0 0 0 0 1020.9 1020.8 0.0
15/08:30pm 14.5 13.7 9.7 73 2.5 WSW 4 6 2 3 1020.6 - 0.0
15/08:00pm 14.9 14.7 10.3 74 2.4 ESE 2 7 1 4 1020.4 - 0.0
15/07:30pm 15.0 15.1 10.2 73 2.5 CALM 0 0 0 0 1020.2 - 0.0
15/07:00pm 16.5 15.8 9.9 65 3.5 ENE 4 7 2 4 1020.0 - 0.0
15/06:30pm 17.0 15.6 9.4 61 4.0 WNW 7 9 4 5 1019.8 - 0.0
15/06:00pm 18.1 16.2 8.9 55 4.8 NW 9 13 5 7 1019.5 1019.4 0.0
15/05:30pm 20.5 19.0 8.5 46 6.3 W 6 9 3 5 1019.4 - 0.0
15/05:00pm 20.9 19.1 7.9 43 6.8 SSW 7 9 4 5 1019.3 - 0.0
15/04:30pm 21.2 19.6 8.1 43 6.9 S 6 9 3 5 1019.3 - 0.0
15/04:00pm 21.1 19.2 7.7 42 7.0 SSW 7 11 4 6 1019.3 - 0.0
15/03:30pm 22.0 20.2 7.8 40 7.5 W 7 11 4 6 1019.5 - 0.0
15/03:00pm 21.1 18.4 7.3 41 7.1 S 11 17 6 9 1019.7 1019.6 0.0
15/02:30pm 20.9 18.6 7.5 42 7.0 SSE 9 15 5 8 1019.7 - 0.0
15/02:00pm 20.7 17.9 8.4 45 6.5 S 13 20 7 11 1019.8 - 0.0
15/01:30pm 20.3 18.1 7.7 44 6.5 SSE 9 50 5 27 1019.9 - 0.0
15/01:00pm 19.9 18.3 8.9 49 5.8 SSE 7 15 4 8 1020.3 - 0.0
15/12:30pm 19.8 17.5 9.1 50 5.7 ESE 11 19 6 10 1020.8 - 0.0
15/12:00pm 19.3 16.1 8.3 49 5.7 SE 15 20 8 11 1021.5 1021.4 0.0
15/11:30am 18.3 14.8 7.4 49 5.6 SE 15 19 8 10 1021.9 - 0.0
15/11:00am 18.2 15.3 8.2 52 5.2 SE 13 20 7 11 1022.3 - 0.0
15/10:30am 17.1 13.4 6.3 49 5.3 SE 15 20 8 11 1022.6 - 0.0
15/10:00am 16.4 14.4 7.1 54 4.6 SE 7 17 4 9 1022.7 - 0.0
15/09:30am 15.0 13.0 7.3 60 3.8 S 7 9 4 5 1023.0 - 0.0
15/09:09am 14.6 13.2 7.4 62 3.6 SSE 4 9 2 5 1023.1 - 0.0
15/09:00am 13.7 11.8 6.8 63 3.3 S 6 9 3 5 1023.1 1023.0 0.0
15/08:30am 12.1 10.2 6.8 70 2.6 SSW 6 7 3 4 1023.1 - 0.0
15/08:00am 11.0 9.1 6.7 75 2.0 SSW 6 7 3 4 1022.9 - 0.0
15/07:30am 9.8 8.6 6.5 80 1.6 S 2 7 1 4 1022.6 - 0.0
15/07:15am 9.0 8.0 5.7 80 1.5 CALM 0 0 0 0 1022.5 - 0.0
15/07:00am 8.6 7.7 5.9 83 1.2 CALM 0 6 0 3 1022.3 - 0.0
15/06:55am 8.5 7.5 5.8 83 1.2 CALM 0 6 0 3 1022.2 - 0.0
15/06:30am 8.5 7.5 5.6 82 1.3 CALM 0 0 0 0 1022.0 - 0.0
15/06:00am 8.9 7.9 5.8 81 1.4 CALM 0 0 0 0 1021.9 1021.8 0.0
15/05:30am 8.7 7.1 6.2 84 1.2 SSW 4 6 2 3 1021.7 - 0.0
15/05:00am 9.0 7.0 6.4 84 1.2 WNW 6 7 3 4 1021.6 - 0.0
15/04:30am 9.5 8.8 6.8 83 1.3 CALM 0 0 0 0 1021.3 - 0.0
15/04:00am 10.0 9.1 6.2 77 1.8 CALM 0 0 0 0 1021.3 - 0.0
15/03:30am 11.8 9.3 6.5 70 2.5 SSE 9 15 5 8 1021.2 - 0.0
15/03:00am 11.3 9.1 6.2 71 2.4 E 7 9 4 5 1021.2 1021.1 0.0
15/02:30am 12.8 10.2 6.2 64 3.2 SE 9 17 5 9 1021.2 - 0.0
15/02:00am 13.5 10.5 6.1 61 3.5 SE 11 19 6 10 1021.1 - 0.0
15/01:30am 13.7 10.0 6.3 61 3.6 SSE 15 20 8 11 1021.2 - 0.0
15/01:00am 13.8 10.1 6.4 61 3.6 SSE 15 20 8 11 1021.2 - 0.0
15/12:30am 13.7 10.8 6.3 61 3.6 SSE 11 15 6 8 1021.3 - 0.0
15/12:00am 13.6 11.5 6.0 60 3.6 SSE 6 9 3 5 1021.3 1021.2 0.0
 
Date/Time
EST
Temp
°C
App
Temp
°C
Dew
Point
Rel
Hum
%
Delta-T
°C
Wind Press
QNH
hPa
Press
MSL
hPa
Rain
since 9 am
mm
Dir
 
Spd
km/h
Gust
km/h
Spd
kts
Gust
kts
14/11:30pm 13.7 11.4 5.8 59 3.8 SSE 7 11 4 6 1021.3 - 0.0
14/11:00pm 14.1 11.5 6.0 58 3.9 SSE 9 15 5 8 1021.4 - 0.0
14/10:30pm 13.9 11.3 6.0 59 3.8 SSE 9 13 5 7 1021.6 - 0.0

Other Formats:

Comma delimited format used in spreadsheet applications
http://www.bom.gov.au/fwo/IDN60801/IDN60801.95896.axf

JavaScript Object Notation format (JSON) in row-major order
http://www.bom.gov.au/fwo/IDN60801/IDN60801.95896.json